Time,TemperatureF,DewpointF,PressureIn,WindDirection,WindDirectionDegrees,WindSpeedMPH,WindSpeedGustMPH,Humidity,HourlyPrecipIn,Conditions,Clouds,dailyrainin,SoftwareType,DateUTC
2013-02-10 00:01:00,30.2,29.7,28.94,NNE,22,2.3,0.0,98,0.00,CLR,,0.00,WeatherDisplay:10.37,2013-02-10 09:01:00,
2013-02-10 00:06:00,30.2,29.7,28.94,NNE,22,3.5,3.5,98,0.00,CLR,,0.00,WeatherDisplay:10.37,2013-02-10 09:06:00,
2013-02-10 00:11:00,30.2,29.7,28.94,NNE,22,0.0,0.0,98,0.00,CLR,,0.00,WeatherDisplay:10.37,2013-02-10 09:11:00,
2013-02-10 00:16:00,30.2,29.7,28.94,NNE,22,0.0,0.0,98,0.00,CLR,,0.00,WeatherDisplay:10.37,2013-02-10 09:16:00,
2013-02-10 00:21:00,30.2,29.7,28.94,NNE,22,1.1,0.0,98,0.00,CLR,,0.00,WeatherDisplay:10.37,2013-02-10 09:21:00,
2013-02-10 00:26:00,30.2,29.7,28.94,NNE,22,0.0,0.0,98,0.00,CLR,,0.00,WeatherDisplay:10.37,2013-02-10 09:26:00,
2013-02-10 00:31:00,30.2,29.7,28.94,NNE,22,1.1,1.1,98,0.00,CLR,,0.00,WeatherDisplay:10.37,2013-02-10 09:31:00,
2013-02-10 00:36:00,30.2,29.7,28.94,NNE,22,0.0,0.0,98,0.00,CLR,,0.00,WeatherDisplay:10.37,2013-02-10 09:36:00,
2013-02-10 00:41:00,30.2,29.7,28.94,NNE,22,3.6,3.6,98,0.00,CLR,,0.00,WeatherDisplay:10.37,2013-02-10 09:41:00,
2013-02-10 00:46:00,30.2,29.7,28.94,NNE,22,0.0,0.0,98,0.00,CLR,,0.00,WeatherDisplay:10.37,2013-02-10 09:46:00,
2013-02-10 00:51:00,30.2,29.7,28.94,NNE,22,0.0,1.6,98,0.00,CLR,,0.00,WeatherDisplay:10.37,2013-02-10 09:51:00,
2013-02-10 00:56:00,30.2,29.7,28.94,NNE,22,0.0,0.0,98,0.00,CLR,,0.00,WeatherDisplay:10.37,2013-02-10 09:56:00,
2013-02-10 01:01:00,30.2,29.7,28.94,NNE,22,0.0,0.0,98,0.00,CLR,,0.00,WeatherDisplay:10.37,2013-02-10 10:01:00,
2013-02-10 01:06:00,30.2,29.7,28.91,NNE,22,2.9,2.9,98,0.00,CLR,,0.00,WeatherDisplay:10.37,2013-02-10 10:06:00,
2013-02-10 01:11:00,30.2,29.7,28.91,NNE,22,2.9,2.9,98,0.00,CLR,,0.00,WeatherDisplay:10.37,2013-02-10 10:11:00,
2013-02-10 01:16:00,30.2,29.7,28.91,NNE,22,1.1,1.1,98,0.00,CLR,,0.00,WeatherDisplay:10.37,2013-02-10 10:16:00,
2013-02-10 01:21:00,30.2,29.7,28.91,NNE,22,0.0,0.0,98,0.00,CLR,,0.00,WeatherDisplay:10.37,2013-02-10 10:21:00,
2013-02-10 01:26:00,30.6,30.1,28.91,NNE,22,0.0,0.0,98,0.00,CLR,,0.00,WeatherDisplay:10.37,2013-02-10 10:26:00,
2013-02-10 01:31:00,30.6,30.1,28.91,NNE,22,0.0,0.0,98,0.00,CLR,,0.00,WeatherDisplay:10.37,2013-02-10 10:31:00,
2013-02-10 01:36:00,30.6,30.1,28.91,NNE,22,0.0,0.0,98,0.00,CLR,,0.00,WeatherDisplay:10.37,2013-02-10 10:36:00,
2013-02-10 01:41:00,30.6,30.1,28.91,NNE,22,0.0,0.0,98,0.00,CLR,,0.00,WeatherDisplay:10.37,2013-02-10 10:41:00,
2013-02-10 01:46:00,30.7,30.2,28.91,NNE,22,0.0,0.0,98,0.00,CLR,,0.00,WeatherDisplay:10.37,2013-02-10 10:46:00,
2013-02-10 01:51:00,31.1,30.6,28.94,NNE,22,2.3,0.0,98,0.00,CLR,,0.00,WeatherDisplay:10.37,2013-02-10 10:51:00,
2013-02-10 01:56:00,31.3,30.8,28.94,NNE,22,2.3,2.3,98,0.00,CLR,,0.00,WeatherDisplay:10.37,2013-02-10 10:56:00,
2013-02-10 02:01:00,31.3,30.8,28.94,NNE,22,1.1,0.0,98,0.00,CLR,,0.00,WeatherDisplay:10.37,2013-02-10 11:01:00,
2013-02-10 02:06:00,31.3,30.8,28.94,NNE,22,0.0,0.0,98,0.00,CLR,,0.00,WeatherDisplay:10.37,2013-02-10 11:06:00,
2013-02-10 02:11:00,31.3,30.8,28.94,NNE,22,0.0,0.0,98,0.00,CLR,,0.00,WeatherDisplay:10.37,2013-02-10 11:11:00,
2013-02-10 02:16:00,31.3,30.8,28.94,NNE,22,0.0,0.0,98,0.00,CLR,,0.00,WeatherDisplay:10.37,2013-02-10 11:16:00,
2013-02-10 02:21:00,31.5,31.0,28.94,NNE,22,2.3,0.0,98,0.00,CLR,,0.00,WeatherDisplay:10.37,2013-02-10 11:21:00,
2013-02-10 02:26:00,31.6,31.1,28.94,NNE,22,1.1,0.0,98,0.00,CLR,,0.00,WeatherDisplay:10.37,2013-02-10 11:26:00,
2013-02-10 02:31:00,31.6,31.1,28.94,NNE,22,0.0,0.0,98,0.00,CLR,,0.00,WeatherDisplay:10.37,2013-02-10 11:31:00,
2013-02-10 02:36:00,31.5,31.0,28.91,NNE,22,0.0,0.0,98,0.00,CLR,,0.00,WeatherDisplay:10.37,2013-02-10 11:36:00,
2013-02-10 02:41:00,31.5,31.0,28.91,NNE,22,0.0,0.0,98,0.00,CLR,,0.00,WeatherDisplay:10.37,2013-02-10 11:41:00,
2013-02-10 02:46:00,31.6,31.1,28.91,NNE,22,0.0,0.0,98,0.00,CLR,,0.00,WeatherDisplay:10.37,2013-02-10 11:46:00,
2013-02-10 02:51:00,31.8,31.3,28.91,NNE,22,2.3,2.6,98,0.00,CLR,,0.00,WeatherDisplay:10.37,2013-02-10 11:51:00,
2013-02-10 02:56:00,31.8,31.3,28.91,NNE,22,0.0,0.0,98,0.00,CLR,,0.00,WeatherDisplay:10.37,2013-02-10 11:56:00,
2013-02-10 03:01:00,31.6,31.1,28.91,NNE,22,0.0,0.0,98,0.00,CLR,,0.00,WeatherDisplay:10.37,2013-02-10 12:01:00,
2013-02-10 03:06:00,31.6,31.1,28.91,NNE,22,0.0,0.0,98,0.00,CLR,,0.00,WeatherDisplay:10.37,2013-02-10 12:06:00,
2013-02-10 03:11:00,31.6,31.1,28.91,NNE,22,0.0,0.0,98,0.00,CLR,,0.00,WeatherDisplay:10.37,2013-02-10 12:11:00,
2013-02-10 03:16:00,31.5,31.0,28.91,NNE,22,0.0,0.0,98,0.00,CLR,,0.00,WeatherDisplay:10.37,2013-02-10 12:16:00,
2013-02-10 03:21:00,31.6,31.1,28.91,NNE,22,0.0,0.0,98,0.00,CLR,,0.00,WeatherDisplay:10.37,2013-02-10 12:21:00,
2013-02-10 03:26:00,31.6,31.1,28.91,NNE,22,0.0,0.0,98,0.00,CLR,,0.00,WeatherDisplay:10.37,2013-02-10 12:26:00,
2013-02-10 03:31:00,31.5,31.0,28.91,NNE,22,0.0,0.0,98,0.00,CLR,,0.00,WeatherDisplay:10.37,2013-02-10 12:31:00,
2013-02-10 03:36:00,31.3,30.8,28.91,NNE,22,0.0,0.0,98,0.00,CLR,,0.00,WeatherDisplay:10.37,2013-02-10 12:36:00,
2013-02-10 03:41:00,31.3,30.8,28.91,NNE,22,0.0,0.0,98,0.00,CLR,,0.00,WeatherDisplay:10.37,2013-02-10 12:41:00,
2013-02-10 03:46:00,31.5,31.0,28.91,NNE,22,0.0,0.0,98,0.00,CLR,,0.00,WeatherDisplay:10.37,2013-02-10 12:46:00,
2013-02-10 03:51:00,31.5,31.0,28.91,NNE,22,0.0,0.0,98,0.00,CLR,,0.00,WeatherDisplay:10.37,2013-02-10 12:51:00,
2013-02-10 03:56:00,31.3,30.8,28.91,NNE,22,0.0,0.0,98,0.00,CLR,,0.00,WeatherDisplay:10.37,2013-02-10 12:56:00,
2013-02-10 04:01:00,31.3,30.8,28.91,NNE,22,0.0,0.0,98,0.00,CLR,,0.00,WeatherDisplay:10.37,2013-02-10 13:01:00,
2013-02-10 04:06:00,31.1,30.6,28.94,NNE,22,2.3,0.0,98,0.00,CLR,,0.00,WeatherDisplay:10.37,2013-02-10 13:06:00,
2013-02-10 04:11:00,31.1,30.6,28.94,NNE,22,0.0,0.0,98,0.00,CLR,,0.00,WeatherDisplay:10.37,2013-02-10 13:11:00,
2013-02-10 04:16:00,31.1,30.6,28.94,NNE,22,0.0,0.0,98,0.00,CLR,,0.00,WeatherDisplay:10.37,2013-02-10 13:16:00,
2013-02-10 04:21:00,31.3,30.8,28.91,NNE,22,0.0,0.0,98,0.00,CLR,,0.00,WeatherDisplay:10.37,2013-02-10 13:21:00,
2013-02-10 04:26:00,31.5,31.0,28.91,NNE,22,0.0,0.0,98,0.00,CLR,,0.00,WeatherDisplay:10.37,2013-02-10 13:26:00,
2013-02-10 04:31:00,31.3,30.8,28.91,NNE,22,0.0,0.0,98,0.00,CLR,,0.00,WeatherDisplay:10.37,2013-02-10 13:31:00,
2013-02-10 04:36:00,31.3,30.8,28.91,NNE,22,0.0,0.0,98,0.00,CLR,,0.00,WeatherDisplay:10.37,2013-02-10 13:36:00,
2013-02-10 04:41:00,31.1,30.6,28.91,NNE,22,0.0,0.0,98,0.00,CLR,,0.00,WeatherDisplay:10.37,2013-02-10 13:41:00,
2013-02-10 04:46:00,31.1,30.6,28.91,NNE,22,0.0,0.0,98,0.00,CLR,,0.00,WeatherDisplay:10.37,2013-02-10 13:46:00,
2013-02-10 04:51:00,31.1,30.6,28.91,NNE,22,0.0,0.0,98,0.00,CLR,,0.00,WeatherDisplay:10.37,2013-02-10 13:51:00,
2013-02-10 04:56:00,31.1,30.6,28.91,NNE,22,3.5,3.5,98,0.00,CLR,,0.00,WeatherDisplay:10.37,2013-02-10 13:56:00,
2013-02-10 05:01:00,31.3,30.8,28.91,NNE,22,0.0,0.0,98,0.00,CLR,,0.00,WeatherDisplay:10.37,2013-02-10 14:01:00,
2013-02-10 05:06:00,31.3,30.8,28.91,NNE,22,2.3,0.0,98,0.00,CLR,,0.00,WeatherDisplay:10.37,2013-02-10 14:06:00,
2013-02-10 05:11:00,31.1,30.6,28.91,NNE,22,0.0,0.0,98,0.00,CLR,,0.00,WeatherDisplay:10.37,2013-02-10 14:11:00,
2013-02-10 05:16:00,31.1,30.6,28.91,NNE,22,0.0,0.0,98,0.00,CLR,,0.00,WeatherDisplay:10.37,2013-02-10 14:16:00,
2013-02-10 05:21:00,31.1,30.6,28.94,NNE,22,1.6,1.6,98,0.00,CLR,,0.00,WeatherDisplay:10.37,2013-02-10 14:21:00,
2013-02-10 05:26:00,31.1,30.6,28.94,NNE,22,0.0,0.0,98,0.00,CLR,,0.00,WeatherDisplay:10.37,2013-02-10 14:26:00,
2013-02-10 05:31:00,30.9,30.4,28.94,NNE,22,0.0,0.0,98,0.00,CLR,,0.00,WeatherDisplay:10.37,2013-02-10 14:31:00,
2013-02-10 05:36:00,30.9,30.4,28.94,NNE,22,0.0,0.0,98,0.00,CLR,,0.00,WeatherDisplay:10.37,2013-02-10 14:36:00,
2013-02-10 05:41:00,30.9,30.4,28.94,NNE,22,0.0,0.0,98,0.00,CLR,,0.00,WeatherDisplay:10.37,2013-02-10 14:41:00,
2013-02-10 05:46:00,30.9,30.4,28.94,NNE,22,0.0,0.0,98,0.00,CLR,,0.00,WeatherDisplay:10.37,2013-02-10 14:46:00,
2013-02-10 05:51:00,31.1,30.6,28.94,NNE,22,0.0,0.0,98,0.00,CLR,,0.00,WeatherDisplay:10.37,2013-02-10 14:51:00,
2013-02-10 05:56:00,31.1,30.6,28.94,NNE,22,0.0,0.0,98,0.00,CLR,,0.00,WeatherDisplay:10.37,2013-02-10 14:56:00,
2013-02-10 06:01:00,31.1,30.6,28.94,NNE,22,0.0,0.0,98,0.00,CLR,,0.00,WeatherDisplay:10.37,2013-02-10 15:01:00,
2013-02-10 06:06:00,31.1,30.6,28.94,NNE,22,0.0,0.0,98,0.00,CLR,,0.00,WeatherDisplay:10.37,2013-02-10 15:06:00,
2013-02-10 06:11:00,31.3,30.8,28.94,NNE,22,0.0,0.0,98,0.00,CLR,,0.00,WeatherDisplay:10.37,2013-02-10 15:11:00,
2013-02-10 06:16:00,31.5,31.0,28.94,NNE,22,0.0,0.0,98,0.00,CLR,,0.00,WeatherDisplay:10.37,2013-02-10 15:16:00,
2013-02-10 06:21:00,31.5,31.0,28.94,NNE,22,0.0,0.0,98,0.00,CLR,,0.00,WeatherDisplay:10.37,2013-02-10 15:21:00,
2013-02-10 06:26:00,31.5,31.0,28.94,NNE,22,3.3,3.3,98,0.00,CLR,,0.00,WeatherDisplay:10.37,2013-02-10 15:26:00,
2013-02-10 06:31:00,31.6,31.1,28.94,NNE,22,0.0,0.0,98,0.00,CLR,,0.00,WeatherDisplay:10.37,2013-02-10 15:31:00,
2013-02-10 06:36:00,31.6,31.1,28.94,NNE,22,2.3,0.0,98,0.00,CLR,,0.00,WeatherDisplay:10.37,2013-02-10 15:36:00,
2013-02-10 06:41:00,31.8,31.3,28.94,NNE,22,0.0,0.0,98,0.00,CLR,,0.00,WeatherDisplay:10.37,2013-02-10 15:41:00,
2013-02-10 06:46:00,31.8,31.3,28.94,NNE,22,0.0,0.0,98,0.00,CLR,,0.00,WeatherDisplay:10.37,2013-02-10 15:46:00,
2013-02-10 06:51:00,31.8,31.3,28.97,NNE,22,0.0,0.0,98,0.00,CLR,,0.00,WeatherDisplay:10.37,2013-02-10 15:51:00,
2013-02-10 06:56:00,31.8,31.3,28.97,NNE,22,0.0,0.0,98,0.00,CLR,,0.00,WeatherDisplay:10.37,2013-02-10 15:56:00,
2013-02-10 07:01:00,32.0,31.5,28.97,NNE,22,0.0,0.0,98,0.00,CLR,,0.00,WeatherDisplay:10.37,2013-02-10 16:01:00,
2013-02-10 07:06:00,32.0,31.5,28.97,NNE,22,0.0,0.0,98,0.00,CLR,,0.00,WeatherDisplay:10.37,2013-02-10 16:06:00,
2013-02-10 07:11:00,32.0,31.5,28.97,NNE,22,0.0,0.0,98,0.00,CLR,,0.00,WeatherDisplay:10.37,2013-02-10 16:11:00,
2013-02-10 07:16:00,32.0,31.5,28.97,NNE,22,0.0,0.0,98,0.00,CLR,,0.00,WeatherDisplay:10.37,2013-02-10 16:16:00,
2013-02-10 07:21:00,32.2,31.7,28.97,NNE,22,1.1,0.0,98,0.00,CLR,,0.00,WeatherDisplay:10.37,2013-02-10 16:21:00,
2013-02-10 07:26:00,32.2,31.7,28.97,NNE,22,0.0,0.0,98,0.00,CLR,,0.00,WeatherDisplay:10.37,2013-02-10 16:26:00,
2013-02-10 07:31:00,32.4,31.9,28.97,NNE,22,0.0,0.0,98,0.00,CLR,,0.00,WeatherDisplay:10.37,2013-02-10 16:31:00,
2013-02-10 07:36:00,32.4,31.9,29.00,NNE,22,0.0,0.0,98,0.00,CLR,,0.00,WeatherDisplay:10.37,2013-02-10 16:36:00,
2013-02-10 07:42:00,32.4,31.9,29.00,NNE,22,0.0,0.0,98,0.00,CLR,,0.00,WeatherDisplay:10.37,2013-02-10 16:42:00,
2013-02-10 07:47:00,32.7,32.2,29.00,NNE,22,0.0,0.0,98,0.00,CLR,,0.00,WeatherDisplay:10.37,2013-02-10 16:47:00,
2013-02-10 07:52:00,34.7,34.2,29.00,WSW,248,2.4,2.4,98,0.00,CLR,,0.00,WeatherDisplay:10.37,2013-02-10 16:52:00,
2013-02-10 07:57:00,34.7,34.2,29.00,WSW,248,2.4,2.4,98,0.00,CLR,,0.00,WeatherDisplay:10.37,2013-02-10 16:57:00,
2013-02-10 08:02:00,34.7,34.2,29.00,WSW,248,6.9,6.9,98,0.00,CLR,,0.00,WeatherDisplay:10.37,2013-02-10 17:02:00,
2013-02-10 08:07:00,36.7,35.6,29.03,SSW,202,5.8,5.8,96,0.00,CLR,,0.00,WeatherDisplay:10.37,2013-02-10 17:07:00,
2013-02-10 08:13:00,36.7,35.6,29.03,WSW,248,5.8,5.8,96,0.00,CLR,,0.00,WeatherDisplay:10.37,2013-02-10 17:13:00,
2013-02-10 08:18:00,36.3,35.3,29.03,West,270,8.1,8.1,96,0.00,CLR,,0.00,WeatherDisplay:10.37,2013-02-10 17:18:00,
2013-02-10 08:23:00,36.1,35.1,29.06,West,270,8.1,8.1,96,0.00,CLR,,0.00,WeatherDisplay:10.37,2013-02-10 17:23:00,
2013-02-10 08:28:00,35.8,34.8,29.06,West,270,8.1,8.1,96,0.00,CLR,,0.00,WeatherDisplay:10.37,2013-02-10 17:28:00,
2013-02-10 08:33:00,35.8,35.0,29.06,SW,225,9.8,9.8,97,0.00,CLR,,0.00,WeatherDisplay:10.37,2013-02-10 17:33:00,
2013-02-10 08:38:00,36.0,35.5,29.06,SW,225,9.8,9.8,98,0.00,CLR,,0.00,WeatherDisplay:10.37,2013-02-10 17:38:00,
2013-02-10 08:43:00,36.3,35.8,29.06,SW,225,9.8,9.8,98,0.00,CLR,,0.00,WeatherDisplay:10.37,2013-02-10 17:43:00,
2013-02-10 08:48:00,36.3,35.8,29.06,SSW,202,9.2,9.2,98,0.00,CLR,,0.00,WeatherDisplay:10.37,2013-02-10 17:48:00,
2013-02-10 08:53:00,36.3,35.8,29.09,SSW,202,3.5,5.4,98,0.00,CLR,,0.00,WeatherDisplay:10.37,2013-02-10 17:53:00,
2013-02-10 08:58:00,36.3,35.6,29.09,WSW,248,7.1,7.1,97,0.00,CLR,,0.00,WeatherDisplay:10.37,2013-02-10 17:58:00,
2013-02-10 09:04:00,36.3,35.6,29.09,ESE,112,5.8,5.8,97,0.00,CLR,,0.00,WeatherDisplay:10.37,2013-02-10 18:04:00,
2013-02-10 09:09:00,36.3,35.6,29.09,NNW,338,4.6,4.9,97,0.00,CLR,,0.00,WeatherDisplay:10.37,2013-02-10 18:09:00,
2013-02-10 09:14:00,36.1,34.8,29.09,ENE,68,5.8,5.8,95,0.00,CLR,,0.00,WeatherDisplay:10.37,2013-02-10 18:14:00,
2013-02-10 09:19:00,36.0,34.1,29.12,SSW,202,10.0,10.0,93,0.00,CLR,,0.00,WeatherDisplay:10.37,2013-02-10 18:19:00,
2013-02-10 09:24:00,35.8,32.9,29.12,WSW,248,8.1,8.1,89,0.00,CLR,,0.00,WeatherDisplay:10.37,2013-02-10 18:24:00,
2013-02-10 09:29:00,35.8,32.6,29.12,SSW,202,6.4,6.9,88,0.00,CLR,,0.00,WeatherDisplay:10.37,2013-02-10 18:29:00,
2013-02-10 09:34:00,36.1,32.4,29.12,SSW,202,6.9,6.9,86,0.00,CLR,,0.00,WeatherDisplay:10.37,2013-02-10 18:34:00,
2013-02-10 09:40:00,36.3,30.7,29.12,SSW,202,6.9,7.1,80,0.00,CLR,,0.00,WeatherDisplay:10.37,2013-02-10 18:40:00,
2013-02-10 09:45:00,36.3,30.1,29.12,SSW,202,6.9,7.1,78,0.00,CLR,,0.00,WeatherDisplay:10.37,2013-02-10 18:45:00,
2013-02-10 09:50:00,36.5,30.3,29.15,SSW,202,8.1,8.1,78,0.00,CLR,,0.00,WeatherDisplay:10.37,2013-02-10 18:50:00,
2013-02-10 09:55:00,36.5,29.7,29.15,SW,225,5.8,7.6,76,0.00,CLR,,0.00,WeatherDisplay:10.37,2013-02-10 18:55:00,
2013-02-10 10:00:00,36.9,29.7,29.15,WNW,292,6.9,6.9,75,0.00,CLR,,0.00,WeatherDisplay:10.37,2013-02-10 19:00:00,
2013-02-10 10:06:00,36.9,29.3,29.15,SE,135,9.8,9.8,74,0.00,CLR,,0.00,WeatherDisplay:10.37,2013-02-10 19:06:00,
2013-02-10 10:11:00,36.9,29.7,29.15,SW,225,6.2,6.4,75,0.00,CLR,,0.00,WeatherDisplay:10.37,2013-02-10 19:11:00,
2013-02-10 10:16:00,37.0,29.2,29.15,ENE,68,5.8,6.2,73,0.00,CLR,,0.00,WeatherDisplay:10.37,2013-02-10 19:16:00,
2013-02-10 10:21:00,37.4,28.9,29.15,North,0,8.1,8.1,71,0.00,CLR,,0.00,WeatherDisplay:10.37,2013-02-10 19:21:00,
2013-02-10 10:26:00,37.4,28.5,29.15,WNW,292,5.4,5.4,70,0.00,CLR,,0.00,WeatherDisplay:10.37,2013-02-10 19:26:00,
2013-02-10 10:32:00,37.6,28.0,29.15,SSW,202,4.6,5.6,68,0.00,CLR,,0.00,WeatherDisplay:10.37,2013-02-10 19:32:00,
2013-02-10 10:37:00,37.6,28.0,29.18,SSE,158,9.8,9.8,68,0.00,CLR,,0.00,WeatherDisplay:10.37,2013-02-10 19:37:00,
2013-02-10 10:42:00,37.8,27.4,29.18,South,180,10.0,10.0,66,0.00,CLR,,0.00,WeatherDisplay:10.37,2013-02-10 19:42:00,
2013-02-10 10:47:00,37.9,27.2,29.18,SW,225,6.0,6.0,65,0.00,CLR,,0.00,WeatherDisplay:10.37,2013-02-10 19:47:00,
2013-02-10 10:52:00,38.1,28.8,29.18,SSW,202,8.1,8.1,69,0.00,CLR,,0.00,WeatherDisplay:10.37,2013-02-10 19:52:00,
2013-02-10 10:57:00,38.3,29.0,29.18,East,90,8.1,8.1,69,0.00,CLR,,0.00,WeatherDisplay:10.37,2013-02-10 19:57:00,
2013-02-10 11:02:00,38.1,28.8,29.18,ESE,112,5.8,5.8,69,0.00,CLR,,0.00,WeatherDisplay:10.37,2013-02-10 20:02:00,
2013-02-10 11:07:00,38.1,29.2,29.20,SSW,202,5.8,5.8,70,0.00,CLR,,0.00,WeatherDisplay:10.37,2013-02-10 20:07:00,
2013-02-10 11:12:00,38.1,29.5,29.20,SSE,158,4.9,4.9,71,0.00,CLR,,0.00,WeatherDisplay:10.37,2013-02-10 20:12:00,
2013-02-10 11:17:00,38.3,29.7,29.20,SSE,158,5.8,5.8,71,0.00,CLR,,0.00,WeatherDisplay:10.37,2013-02-10 20:17:00,
2013-02-10 11:22:00,38.3,29.7,29.20,East,90,5.8,5.8,71,0.00,CLR,,0.00,WeatherDisplay:10.37,2013-02-10 20:22:00,
2013-02-10 11:27:00,38.5,30.2,29.20,SSE,158,7.8,7.8,72,0.00,CLR,,0.00,WeatherDisplay:10.37,2013-02-10 20:27:00,
2013-02-10 11:32:00,38.7,30.1,29.20,SSE,158,5.8,5.8,71,0.00,CLR,,0.00,WeatherDisplay:10.37,2013-02-10 20:32:00,
2013-02-10 11:37:00,38.8,29.9,29.20,ESE,112,5.8,5.8,70,0.00,CLR,,0.00,WeatherDisplay:10.37,2013-02-10 20:37:00,
2013-02-10 11:42:00,39.2,29.9,29.20,SSW,202,5.8,5.8,69,0.00,CLR,,0.00,WeatherDisplay:10.37,2013-02-10 20:42:00,
2013-02-10 11:47:00,39.2,30.6,29.20,SSE,158,3.5,3.5,71,0.00,CLR,,0.00,WeatherDisplay:10.37,2013-02-10 20:47:00,
2013-02-10 11:52:00,39.0,30.4,29.20,East,90,5.8,5.8,71,0.00,CLR,,0.00,WeatherDisplay:10.37,2013-02-10 20:52:00,
2013-02-10 11:57:00,39.0,30.8,29.20,SSW,202,3.5,3.5,72,0.00,CLR,,0.00,WeatherDisplay:10.37,2013-02-10 20:57:00,
2013-02-10 12:02:00,38.8,30.6,29.20,SSE,158,4.6,4.6,72,0.00,CLR,,0.00,WeatherDisplay:10.37,2013-02-10 21:02:00,
2013-02-10 12:07:00,38.8,30.6,29.24,ESE,112,3.5,3.5,72,0.00,CLR,,0.00,WeatherDisplay:10.37,2013-02-10 21:07:00,
2013-02-10 12:12:00,39.0,30.8,29.24,ESE,112,4.6,4.6,72,0.00,CLR,,0.00,WeatherDisplay:10.37,2013-02-10 21:12:00,
2013-02-10 12:18:00,39.4,30.1,29.24,SSE,158,4.6,4.6,69,0.00,CLR,,0.00,WeatherDisplay:10.37,2013-02-10 21:18:00,
2013-02-10 12:23:00,39.4,29.7,29.24,SSW,202,4.6,4.6,68,0.00,CLR,,0.00,WeatherDisplay:10.37,2013-02-10 21:23:00,
2013-02-10 12:28:00,39.4,29.7,29.24,SE,135,4.6,4.6,68,0.00,CLR,,0.00,WeatherDisplay:10.37,2013-02-10 21:28:00,
2013-02-10 12:33:00,39.7,29.7,29.24,SSW,202,5.8,5.8,67,0.00,CLR,,0.00,WeatherDisplay:10.37,2013-02-10 21:33:00,
2013-02-10 12:39:00,39.9,29.8,29.24,East,90,3.5,3.5,67,0.00,CLR,,0.00,WeatherDisplay:10.37,2013-02-10 21:39:00,
2013-02-10 12:45:00,39.9,28.7,29.24,SSW,202,3.5,3.5,64,0.00,CLR,,0.00,WeatherDisplay:10.37,2013-02-10 21:45:00,
2013-02-10 12:50:00,39.6,27.6,29.26,ENE,68,5.8,5.8,62,0.00,CLR,,0.00,WeatherDisplay:10.37,2013-02-10 21:50:00,
2013-02-10 12:55:00,39.7,28.2,29.26,SSW,202,8.1,8.1,63,0.00,CLR,,0.00,WeatherDisplay:10.37,2013-02-10 21:55:00,
2013-02-10 13:00:00,39.6,28.0,29.26,SSE,158,6.0,6.0,63,0.00,CLR,,0.00,WeatherDisplay:10.37,2013-02-10 22:00:00,
2013-02-10 13:06:00,39.4,27.8,29.24,SE,135,3.5,3.5,63,0.00,CLR,,0.00,WeatherDisplay:10.37,2013-02-10 22:06:00,
2013-02-10 13:11:00,39.4,27.8,29.24,South,180,2.3,2.3,63,0.00,CLR,,0.00,WeatherDisplay:10.37,2013-02-10 22:11:00,
2013-02-10 13:16:00,39.4,27.8,29.24,South,180,4.9,4.9,63,0.00,CLR,,0.00,WeatherDisplay:10.37,2013-02-10 22:16:00,
2013-02-10 13:21:00,39.2,28.0,29.26,NNE,22,4.6,4.6,64,0.00,CLR,,0.00,WeatherDisplay:10.37,2013-02-10 22:21:00,
2013-02-10 13:26:00,38.8,28.8,29.26,SSE,158,7.6,7.6,67,0.00,CLR,,0.00,WeatherDisplay:10.37,2013-02-10 22:26:00,
2013-02-10 13:31:00,38.8,28.1,29.26,South,180,5.8,5.8,65,0.00,CLR,,0.00,WeatherDisplay:10.37,2013-02-10 22:31:00,
2013-02-10 13:36:00,38.8,28.8,29.26,NE,45,4.6,4.6,67,0.00,CLR,,0.00,WeatherDisplay:10.37,2013-02-10 22:36:00,
2013-02-10 13:42:00,38.8,29.5,29.26,SE,135,3.3,3.3,69,0.00,CLR,,0.00,WeatherDisplay:10.37,2013-02-10 22:42:00,
2013-02-10 13:47:00,38.7,30.1,29.26,WNW,292,3.5,3.5,71,0.00,CLR,,0.00,WeatherDisplay:10.37,2013-02-10 22:47:00,
2013-02-10 13:52:00,38.5,30.2,29.26,SE,135,3.5,3.5,72,0.00,CLR,,0.00,WeatherDisplay:10.37,2013-02-10 22:52:00,
2013-02-10 13:57:00,38.1,30.9,29.26,West,270,3.5,3.5,75,0.00,CLR,,0.00,WeatherDisplay:10.37,2013-02-10 22:57:00,
2013-02-10 14:02:00,38.1,31.2,29.26,SSW,202,3.5,3.5,76,0.00,CLR,,0.00,WeatherDisplay:10.37,2013-02-10 23:02:00,
2013-02-10 14:07:00,38.1,31.5,29.26,SSE,158,2.3,0.0,77,0.00,CLR,,0.00,WeatherDisplay:10.37,2013-02-10 23:07:00,
2013-02-10 14:12:00,37.9,31.4,29.26,SSW,202,4.9,4.9,77,0.00,CLR,,0.00,WeatherDisplay:10.37,2013-02-10 23:12:00,
2013-02-10 14:17:00,37.9,31.7,29.26,WSW,248,2.3,2.3,78,0.00,CLR,,0.00,WeatherDisplay:10.37,2013-02-10 23:17:00,
2013-02-10 14:22:00,38.3,32.0,29.26,West,270,3.6,3.6,78,0.00,CLR,,0.00,WeatherDisplay:10.37,2013-02-10 23:22:00,
2013-02-10 14:27:00,38.5,32.8,29.26,SSW,202,3.5,3.5,80,0.00,CLR,,0.00,WeatherDisplay:10.37,2013-02-10 23:27:00,
2013-02-10 14:32:00,38.8,33.2,29.26,SSW,202,3.5,3.5,80,0.00,CLR,,0.00,WeatherDisplay:10.37,2013-02-10 23:32:00,
2013-02-10 14:37:00,38.8,32.9,29.26,SSW,202,4.6,4.6,79,0.00,CLR,,0.00,WeatherDisplay:10.37,2013-02-10 23:37:00,
2013-02-10 14:42:00,39.2,32.9,29.26,SSE,158,4.5,4.5,78,0.00,CLR,,0.00,WeatherDisplay:10.37,2013-02-10 23:42:00,
2013-02-10 14:47:00,39.2,32.3,29.26,SW,225,4.6,4.6,76,0.00,CLR,,0.00,WeatherDisplay:10.37,2013-02-10 23:47:00,
2013-02-10 14:52:00,39.0,32.1,29.26,WSW,248,2.3,2.4,76,0.00,CLR,,0.00,WeatherDisplay:10.37,2013-02-10 23:52:00,
2013-02-10 14:57:00,38.8,31.9,29.26,SSW,202,2.3,2.3,76,0.00,CLR,,0.00,WeatherDisplay:10.37,2013-02-10 23:57:00,
2013-02-10 15:02:00,38.7,31.7,29.26,SSW,202,1.1,0.0,76,0.00,CLR,,0.00,WeatherDisplay:10.37,2013-02-11 00:02:00,
2013-02-10 15:07:00,38.7,31.7,29.26,SE,135,2.3,2.3,76,0.00,CLR,,0.00,WeatherDisplay:10.37,2013-02-11 00:07:00,
2013-02-10 15:12:00,38.7,31.4,29.26,SE,135,1.6,1.6,75,0.00,CLR,,0.00,WeatherDisplay:10.37,2013-02-11 00:12:00,
2013-02-10 15:17:00,39.0,31.1,29.26,WSW,248,3.5,3.5,73,0.00,CLR,,0.00,WeatherDisplay:10.37,2013-02-11 00:17:00,
2013-02-10 15:22:00,39.4,31.1,29.29,SSW,202,4.6,4.6,72,0.00,CLR,,0.00,WeatherDisplay:10.37,2013-02-11 00:22:00,
2013-02-10 15:27:00,39.6,31.3,29.29,South,180,3.3,3.3,72,0.00,CLR,,0.00,WeatherDisplay:10.37,2013-02-11 00:27:00,
2013-02-10 15:32:00,39.6,31.3,29.29,SSW,202,6.9,6.9,72,0.00,CLR,,0.00,WeatherDisplay:10.37,2013-02-11 00:32:00,
2013-02-10 15:37:00,39.4,30.8,29.29,SW,225,2.3,2.4,71,0.00,CLR,,0.00,WeatherDisplay:10.37,2013-02-11 00:37:00,
2013-02-10 15:42:00,39.2,30.6,29.29,WSW,248,4.0,4.0,71,0.00,CLR,,0.00,WeatherDisplay:10.37,2013-02-11 00:42:00,
2013-02-10 15:47:00,39.0,30.8,29.29,WSW,248,1.4,1.4,72,0.00,CLR,,0.00,WeatherDisplay:10.37,2013-02-11 00:47:00,
2013-02-10 15:52:00,38.5,30.9,29.29,SSW,202,2.3,2.3,74,0.00,CLR,,0.00,WeatherDisplay:10.37,2013-02-11 00:52:00,
2013-02-10 15:57:00,38.1,30.9,29.29,SSW,202,2.3,0.0,75,0.00,CLR,,0.00,WeatherDisplay:10.37,2013-02-11 00:57:00,
2013-02-10 16:02:00,37.9,31.0,29.29,West,270,2.3,2.3,76,0.00,CLR,,0.00,WeatherDisplay:10.37,2013-02-11 01:02:00,
2013-02-10 16:07:00,37.6,31.3,29.29,SSW,202,1.1,1.1,78,0.00,CLR,,0.00,WeatherDisplay:10.37,2013-02-11 01:07:00,
2013-02-10 16:12:00,37.0,31.4,29.29,SW,225,2.3,0.0,80,0.00,CLR,,0.00,WeatherDisplay:10.37,2013-02-11 01:12:00,
2013-02-10 16:17:00,36.9,31.6,29.29,SW,225,0.0,0.0,81,0.00,CLR,,0.00,WeatherDisplay:10.37,2013-02-11 01:17:00,
2013-02-10 16:22:00,36.7,31.4,29.29,ENE,68,1.1,0.0,81,0.00,CLR,,0.00,WeatherDisplay:10.37,2013-02-11 01:22:00,
2013-02-10 16:27:00,36.3,31.7,29.29,ENE,68,1.1,0.0,83,0.00,CLR,,0.00,WeatherDisplay:10.37,2013-02-11 01:27:00,
2013-02-10 16:32:00,36.3,31.7,29.29,ENE,68,0.0,0.0,83,0.00,CLR,,0.00,WeatherDisplay:10.37,2013-02-11 01:32:00,
2013-02-10 16:37:00,36.3,31.9,29.32,South,180,0.0,0.0,84,0.00,CLR,,0.00,WeatherDisplay:10.37,2013-02-11 01:37:00,
2013-02-10 16:42:00,36.1,32.1,29.32,SSW,202,1.1,0.0,85,0.00,CLR,,0.00,WeatherDisplay:10.37,2013-02-11 01:42:00,
2013-02-10 16:47:00,36.1,32.4,29.32,SSW,202,1.1,0.0,86,0.00,CLR,,0.00,WeatherDisplay:10.37,2013-02-11 01:47:00,
2013-02-10 16:52:00,35.8,32.0,29.32,WSW,248,1.1,1.1,86,0.00,CLR,,0.00,WeatherDisplay:10.37,2013-02-11 01:52:00,
2013-02-10 16:57:00,35.8,32.3,29.32,WSW,248,2.3,0.0,87,0.00,CLR,,0.00,WeatherDisplay:10.37,2013-02-11 01:57:00,
2013-02-10 17:02:00,35.6,32.1,29.32,SSW,202,0.0,0.0,87,0.00,CLR,,0.00,WeatherDisplay:10.37,2013-02-11 02:02:00,
2013-02-10 17:07:00,35.4,31.9,29.32,WSW,248,0.0,0.0,87,0.00,CLR,,0.00,WeatherDisplay:10.37,2013-02-11 02:07:00,
2013-02-10 17:12:00,35.4,31.9,29.32,WSW,248,0.0,0.0,87,0.00,CLR,,0.00,WeatherDisplay:10.37,2013-02-11 02:12:00,
2013-02-10 17:17:00,35.4,31.9,29.32,SW,225,0.0,0.0,87,0.00,CLR,,0.00,WeatherDisplay:10.37,2013-02-11 02:17:00,
2013-02-10 17:22:00,35.4,31.9,29.32,WSW,248,0.0,0.0,87,0.00,CLR,,0.00,WeatherDisplay:10.37,2013-02-11 02:22:00,
2013-02-10 17:27:00,34.9,31.7,29.32,SSW,202,0.0,0.0,88,0.00,CLR,,0.00,WeatherDisplay:10.37,2013-02-11 02:27:00,
2013-02-10 17:32:00,34.9,31.7,29.32,WSW,248,0.0,0.0,88,0.00,CLR,,0.00,WeatherDisplay:10.37,2013-02-11 02:32:00,
2013-02-10 17:37:00,34.9,32.0,29.32,WSW,248,0.0,0.0,89,0.00,CLR,,0.00,WeatherDisplay:10.37,2013-02-11 02:37:00,
2013-02-10 17:42:00,34.9,32.0,29.32,NNW,338,0.0,0.0,89,0.00,CLR,,0.00,WeatherDisplay:10.37,2013-02-11 02:42:00,
2013-02-10 17:47:00,34.9,32.0,29.32,WNW,292,0.0,0.0,89,0.00,CLR,,0.00,WeatherDisplay:10.37,2013-02-11 02:47:00,
2013-02-10 17:52:00,34.9,32.0,29.32,WSW,248,2.3,0.0,89,0.00,CLR,,0.00,WeatherDisplay:10.37,2013-02-11 02:52:00,
2013-02-10 17:57:00,35.1,32.1,29.32,ESE,112,0.0,0.0,89,0.00,CLR,,0.00,WeatherDisplay:10.37,2013-02-11 02:57:00,
2013-02-10 18:02:00,35.1,32.1,29.32,East,90,0.0,0.9,89,0.00,CLR,,0.00,WeatherDisplay:10.37,2013-02-11 03:02:00,
2013-02-10 18:07:00,35.2,32.0,29.32,SSW,202,1.1,0.0,88,0.00,CLR,,0.00,WeatherDisplay:10.37,2013-02-11 03:07:00,
2013-02-10 18:12:00,35.4,31.4,29.32,SE,135,2.3,0.0,85,0.00,CLR,,0.00,WeatherDisplay:10.37,2013-02-11 03:12:00,
2013-02-10 18:17:00,35.6,30.9,29.32,East,90,4.6,4.6,83,0.00,CLR,,0.00,WeatherDisplay:10.37,2013-02-11 03:17:00,
2013-02-10 18:22:00,35.6,30.9,29.32,SSW,202,0.0,0.0,83,0.00,CLR,,0.00,WeatherDisplay:10.37,2013-02-11 03:22:00,
2013-02-10 18:27:00,35.4,31.4,29.32,SSW,202,1.1,0.0,85,0.00,CLR,,0.00,WeatherDisplay:10.37,2013-02-11 03:27:00,
2013-02-10 18:32:00,35.4,31.4,29.32,SSW,202,1.1,1.1,85,0.00,CLR,,0.00,WeatherDisplay:10.37,2013-02-11 03:32:00,
2013-02-10 18:37:00,35.4,31.1,29.32,SSW,202,1.4,1.4,84,0.00,CLR,,0.00,WeatherDisplay:10.37,2013-02-11 03:37:00,
2013-02-10 18:42:00,35.4,30.5,29.32,SE,135,3.5,3.5,82,0.00,CLR,,0.00,WeatherDisplay:10.37,2013-02-11 03:42:00,
2013-02-10 18:47:00,35.4,30.5,29.32,SSW,202,3.5,3.5,82,0.00,CLR,,0.00,WeatherDisplay:10.37,2013-02-11 03:47:00,
2013-02-10 18:52:00,35.4,30.8,29.32,SSE,158,3.1,3.1,83,0.00,CLR,,0.00,WeatherDisplay:10.37,2013-02-11 03:52:00,
2013-02-10 18:57:00,35.4,30.8,29.32,SSW,202,2.3,2.3,83,0.00,CLR,,0.00,WeatherDisplay:10.37,2013-02-11 03:57:00,
2013-02-10 19:02:00,35.2,30.6,29.32,SSW,202,2.0,2.0,83,0.00,CLR,,0.00,WeatherDisplay:10.37,2013-02-11 04:02:00,
2013-02-10 19:07:00,35.2,30.6,29.32,SSW,202,1.1,0.0,83,0.00,CLR,,0.00,WeatherDisplay:10.37,2013-02-11 04:07:00,
2013-02-10 19:12:00,35.2,30.6,29.32,SSW,202,1.1,1.1,83,0.00,CLR,,0.00,WeatherDisplay:10.37,2013-02-11 04:12:00,
2013-02-10 19:17:00,35.2,30.6,29.32,ENE,68,2.3,2.3,83,0.00,CLR,,0.00,WeatherDisplay:10.37,2013-02-11 04:17:00,
2013-02-10 19:22:00,35.1,30.7,29.35,ESE,112,3.5,3.5,84,0.00,CLR,,0.00,WeatherDisplay:10.37,2013-02-11 04:22:00,
2013-02-10 19:27:00,34.7,31.2,29.35,SE,135,2.3,0.0,87,0.00,CLR,,0.00,WeatherDisplay:10.37,2013-02-11 04:27:00,
2013-02-10 19:32:00,34.5,31.0,29.35,SSE,158,4.7,4.7,87,0.00,CLR,,0.00,WeatherDisplay:10.37,2013-02-11 04:32:00,
2013-02-10 19:37:00,34.5,31.0,29.35,SSE,158,3.5,3.5,87,0.00,CLR,,0.00,WeatherDisplay:10.37,2013-02-11 04:37:00,
2013-02-10 19:42:00,34.5,31.6,29.35,SSE,158,2.6,2.6,89,0.00,CLR,,0.00,WeatherDisplay:10.37,2013-02-11 04:42:00,
2013-02-10 19:47:00,34.5,31.9,29.35,SW,225,4.6,4.6,90,0.00,CLR,,0.00,WeatherDisplay:10.37,2013-02-11 04:47:00,
2013-02-10 19:53:00,34.5,31.9,29.35,ESE,112,5.8,5.8,90,0.00,CLR,,0.00,WeatherDisplay:10.37,2013-02-11 04:53:00,
2013-02-10 19:58:00,34.5,31.9,29.35,SSW,202,7.6,7.6,90,0.00,CLR,,0.00,WeatherDisplay:10.37,2013-02-11 04:58:00,
2013-02-10 20:01:00,34.5,32.2,29.35,ESE,112,4.5,4.5,91,0.00,CLR,,0.00,WeatherDisplay:10.37,2013-02-11 05:01:00,
2013-02-10 20:02:00,34.5,32.2,29.35,ESE,112,4.6,4.6,91,0.00,CLR,,0.00,WeatherDisplay:10.37,2013-02-11 05:02:00,
2013-02-10 20:07:00,34.5,32.2,29.35,SSW,202,8.1,8.1,91,0.00,CLR,,0.00,WeatherDisplay:10.37,2013-02-11 05:07:00,
2013-02-10 20:10:00,34.5,32.2,29.35,SSE,158,3.5,3.5,91,0.00,CLR,,0.00,WeatherDisplay:10.37,2013-02-11 05:10:00,
2013-02-10 20:15:00,34.5,32.2,29.35,SSE,158,2.3,2.3,91,0.00,CLR,,0.00,WeatherDisplay:10.37,2013-02-11 05:15:00,
2013-02-10 20:20:00,34.7,32.3,29.35,South,180,1.1,0.0,91,0.00,CLR,,0.00,WeatherDisplay:10.37,2013-02-11 05:20:00,
2013-02-10 20:25:00,34.7,32.3,29.35,SSE,158,2.3,2.3,91,0.00,CLR,,0.00,WeatherDisplay:10.37,2013-02-11 05:25:00,
2013-02-10 20:30:00,34.7,32.3,29.35,SSE,158,0.0,0.0,91,0.00,CLR,,0.00,WeatherDisplay:10.37,2013-02-11 05:30:00,
2013-02-10 20:35:00,34.5,32.2,29.35,SSE,158,1.4,0.0,91,0.00,CLR,,0.00,WeatherDisplay:10.37,2013-02-11 05:35:00,
2013-02-10 20:40:00,34.5,32.4,29.35,North,0,3.5,3.5,92,0.00,CLR,,0.00,WeatherDisplay:10.37,2013-02-11 05:40:00,
2013-02-10 20:45:00,34.3,32.8,29.35,WSW,248,0.0,0.0,94,0.00,CLR,,0.00,WeatherDisplay:10.37,2013-02-11 05:45:00,
2013-02-10 20:50:00,34.2,32.6,29.35,SW,225,2.4,2.6,94,0.00,CLR,,0.00,WeatherDisplay:10.37,2013-02-11 05:50:00,
2013-02-10 20:55:00,34.0,33.0,29.35,SSW,202,3.5,3.5,96,0.00,CLR,,0.00,WeatherDisplay:10.37,2013-02-11 05:55:00,
2013-02-10 21:01:00,33.8,33.0,29.35,SSW,202,2.3,0.0,97,0.00,CLR,,0.00,WeatherDisplay:10.37,2013-02-11 06:01:00,
2013-02-10 21:06:00,33.6,32.9,29.38,WSW,248,2.3,2.3,97,0.00,CLR,,0.00,WeatherDisplay:10.37,2013-02-11 06:06:00,
2013-02-10 21:11:00,33.6,33.1,29.38,WSW,248,3.8,3.8,98,0.00,CLR,,0.00,WeatherDisplay:10.37,2013-02-11 06:11:00,
2013-02-10 21:16:00,33.4,32.9,29.38,WSW,248,1.1,0.0,98,0.00,CLR,,0.00,WeatherDisplay:10.37,2013-02-11 06:16:00,
2013-02-10 21:21:00,33.3,32.8,29.38,SSW,202,1.1,0.0,98,0.00,CLR,,0.00,WeatherDisplay:10.37,2013-02-11 06:21:00,
2013-02-10 21:26:00,33.3,32.8,29.38,WSW,248,0.0,0.0,98,0.00,CLR,,0.00,WeatherDisplay:10.37,2013-02-11 06:26:00,
2013-02-10 21:31:00,33.3,32.8,29.38,SSW,202,1.1,1.1,98,0.00,CLR,,0.00,WeatherDisplay:10.37,2013-02-11 06:31:00,
2013-02-10 21:36:00,33.3,32.8,29.38,SSE,158,1.1,0.0,98,0.00,CLR,,0.00,WeatherDisplay:10.37,2013-02-11 06:36:00,
2013-02-10 21:40:00,33.1,32.6,29.38,WSW,248,2.3,0.0,98,0.00,CLR,,0.00,WeatherDisplay:10.37,2013-02-11 06:40:00,
2013-02-10 21:45:00,33.1,32.6,29.38,SSW,202,1.1,1.1,98,0.00,CLR,,0.00,WeatherDisplay:10.37,2013-02-11 06:45:00,
2013-02-10 21:50:00,33.1,32.6,29.38,WSW,248,3.5,0.0,98,0.00,CLR,,0.00,WeatherDisplay:10.37,2013-02-11 06:50:00,
2013-02-10 21:55:00,32.9,32.4,29.38,WSW,248,4.6,4.6,98,0.00,CLR,,0.00,WeatherDisplay:10.37,2013-02-11 06:55:00,
2013-02-10 22:01:00,32.9,32.4,29.38,WSW,248,3.5,0.0,98,0.00,CLR,,0.00,WeatherDisplay:10.37,2013-02-11 07:01:00,
2013-02-10 22:06:00,32.7,32.2,29.38,SW,225,1.1,0.0,98,0.00,CLR,,0.00,WeatherDisplay:10.37,2013-02-11 07:06:00,
2013-02-10 22:11:00,32.7,32.2,29.38,WSW,248,3.3,0.0,98,0.00,CLR,,0.00,WeatherDisplay:10.37,2013-02-11 07:11:00,
2013-02-10 22:16:00,32.7,32.2,29.38,WSW,248,2.3,0.0,98,0.00,CLR,,0.00,WeatherDisplay:10.37,2013-02-11 07:16:00,
2013-02-10 22:21:00,32.7,32.2,29.38,WSW,248,0.0,0.9,98,0.00,CLR,,0.00,WeatherDisplay:10.37,2013-02-11 07:21:00,
2013-02-10 22:26:00,32.7,32.2,29.38,WSW,248,2.2,2.2,98,0.00,CLR,,0.00,WeatherDisplay:10.37,2013-02-11 07:26:00,
2013-02-10 22:31:00,32.5,32.0,29.38,SSW,202,2.3,2.3,98,0.00,CLR,,0.00,WeatherDisplay:10.37,2013-02-11 07:31:00,
2013-02-10 22:36:00,32.5,32.0,29.41,West,270,0.0,0.0,98,0.00,CLR,,0.00,WeatherDisplay:10.37,2013-02-11 07:36:00,
2013-02-10 22:41:00,32.4,31.9,29.41,West,270,2.3,0.0,98,0.00,CLR,,0.00,WeatherDisplay:10.37,2013-02-11 07:41:00,
2013-02-10 22:46:00,32.4,31.9,29.41,West,270,0.0,0.0,98,0.00,CLR,,0.00,WeatherDisplay:10.37,2013-02-11 07:46:00,
2013-02-10 22:51:00,32.4,31.9,29.41,West,270,0.0,0.0,98,0.00,CLR,,0.00,WeatherDisplay:10.37,2013-02-11 07:51:00,
2013-02-10 22:56:00,32.4,31.9,29.41,SSW,202,0.0,0.0,98,0.00,CLR,,0.00,WeatherDisplay:10.37,2013-02-11 07:56:00,
2013-02-10 23:01:00,32.4,31.9,29.41,SSE,158,0.0,0.0,98,0.00,CLR,,0.00,WeatherDisplay:10.37,2013-02-11 08:01:00,
2013-02-10 23:06:00,32.4,31.9,29.41,SSW,202,0.0,0.0,98,0.00,CLR,,0.00,WeatherDisplay:10.37,2013-02-11 08:06:00,
2013-02-10 23:11:00,32.4,31.9,29.41,SSW,202,0.0,0.0,98,0.00,CLR,,0.00,WeatherDisplay:10.37,2013-02-11 08:11:00,
2013-02-10 23:16:00,32.5,32.0,29.41,SSE,158,0.0,1.1,98,0.00,CLR,,0.00,WeatherDisplay:10.37,2013-02-11 08:16:00,
2013-02-10 23:21:00,32.4,31.9,29.41,SSE,158,0.0,0.0,98,0.00,CLR,,0.00,WeatherDisplay:10.37,2013-02-11 08:21:00,
2013-02-10 23:26:00,32.4,31.9,29.41,SSE,158,0.0,0.0,98,0.00,CLR,,0.00,WeatherDisplay:10.37,2013-02-11 08:26:00,
2013-02-10 23:31:00,32.4,31.9,29.41,ESE,112,0.0,0.0,98,0.00,CLR,,0.00,WeatherDisplay:10.37,2013-02-11 08:31:00,
2013-02-10 23:36:00,32.4,31.9,29.41,SE,135,1.1,0.0,98,0.00,CLR,,0.00,WeatherDisplay:10.37,2013-02-11 08:36:00,
2013-02-10 23:41:00,32.4,31.9,29.41,SSE,158,1.1,0.0,98,0.00,CLR,,0.00,WeatherDisplay:10.37,2013-02-11 08:41:00,
2013-02-10 23:46:00,32.4,31.9,29.41,East,90,2.3,2.3,98,0.00,CLR,,0.00,WeatherDisplay:10.37,2013-02-11 08:46:00,
2013-02-10 23:51:00,32.4,31.9,29.41,SSE,158,1.4,0.0,98,0.00,CLR,,0.00,WeatherDisplay:10.37,2013-02-11 08:51:00,
2013-02-10 23:56:00,32.2,31.7,29.41,SSE,158,2.3,2.3,98,0.00,CLR,,0.00,WeatherDisplay:10.37,2013-02-11 08:56:00,